Nearby METAR Reports

 

KMRB - Martinsburg, West Virginia, USA
Distance from station: NNW 9mi, 14km
Updated: 07/17/2018 9:53pm
Mist, Clear
Mist, Clear
 Wind from SSW
Wind: SSW 3 mph , 6 km/h
Temperature: 70°F , 21°C
Dew Point: 70°F , 21°C
Humidity: 100%
Barometer: 29.91 inHg , 1012.9 hPa
Summary: Mist
Clouds: Clear
Visibility: 5 miles , 8 km
2018/07/18 01:53 KMRB 180153Z 21003KT 5SM BR CLR 21/21 A2991 RMK AO2 SLP124 T02110206 $
KOKV - Winchester Rgnl, Virginia, USA
Distance from station: SW 17mi, 28km
Updated: 07/17/2018 10:55pm
Mist, Clear
Mist, Clear
 Wind from calm
Wind: Calm
Temperature: 68°F , 20°C
Dew Point: 66°F , 19°C
Humidity: 94%
Barometer: 29.95 inHg , 1014.2 hPa
Summary: Mist
Clouds: Clear
Visibility: 5 miles , 8 km
2018/07/18 02:55 KOKV 180255Z AUTO 00000KT 5SM BR CLR 20/19 A2995 RMK AO2
 
KJYO - Leesburg/Godfrey, Virginia, USA
Distance from station: SE 23mi, 38km
Updated: 07/17/2018 10:35pm
Clear
Clear
 Wind from WNW
Wind: WNW 3 mph , 6 km/h
Temperature: 68°F , 20°C
Dew Point: 68°F , 20°C
Humidity: 100%
Barometer: 29.90 inHg , 1012.5 hPa
Clouds: Clear
Visibility: 10 miles , 16 km
2018/07/18 02:35 KJYO 180235Z AUTO 29003KT 10SM CLR 20/20 A2990 RMK AO2
KFDK - Frederick, Maryland, USA
Distance from station: ENE 30mi, 48km
Updated: 07/17/2018 10:35pm
Mist, Overcast
Mist, Overcast
 Wind from calm
Wind: Calm
Temperature: 70°F , 21°C
Dew Point: 70°F , 21°C
Humidity: 100%
Barometer: 29.91 inHg , 1012.9 hPa
Summary: Mist
Clouds: Overcast
Visibility: 1 1/4 miles , 2 km
Cloud details: Overcast 700 ft
2018/07/18 02:35 KFDK 180235Z AUTO 00000KT 1 1/4SM BR VV007 21/21 A2991 RMK AO2 LTG DSNT E
 
KHGR - Hagerstown, Maryland, USA
Distance from station: NNE 30mi, 48km
Updated: 07/17/2018 10:53pm
Clear
Clear
 Wind from NNW
Wind: NNW 6 mph , 9 km/h
Temperature: 72°F , 22°C
Dew Point: 66°F , 19°C
Humidity: 83%
Barometer: 29.92 inHg , 1013.2 hPa
Clouds: Clear
Visibility: 10 miles , 16 km
2018/07/18 02:53 KHGR 180253Z AUTO 33005KT 10SM CLR 22/19 A2992 RMK AO2 SLP135 60060 T02220194 51019
KIAD - Wash Dc/Dulles, Virginia, USA
Distance from station: SE 34mi, 55km
Updated: 07/17/2018 10:52pm
Overcast
Overcast
 Wind from NW
Wind: NW 6 mph , 9 km/h
Temperature: 72°F , 22°C
Dew Point: 70°F , 21°C
Humidity: 94%
Barometer: 29.89 inHg , 1012.2 hPa
Clouds: Overcast
Visibility: 10 miles , 16 km
Cloud details: Few Clouds 12000 ft
Overcast 25000 ft
2018/07/18 02:52 KIAD 180252Z 32005KT 10SM FEW120 OVC250 22/21 A2989 RMK AO2 SLP117 CB DSNT NE T02170211 50013
 
KRSP - Nsf Thurmont, Maryland, USA
Distance from station: NE 34mi, 55km
Updated: 07/17/2018 9:54pm
Clear
Clear
 Wind from NNW
Wind: NNW 7 mph , 11 km/h
Temperature: 68°F , 20°C
Dew Point: 66°F , 19°C
Humidity: 94%
Barometer: 29.96 inHg , 1014.6 hPa
Clouds: Clear
Visibility: 9 miles , 14 km
2018/07/18 01:54 KRSP 180154Z AUTO 34006KT 9SM CLR 20/19 A2996 RMK AO2 TSE0058 SLP136 T02000194 $
KGAI - Gaithersburg, Maryland, USA
Distance from station: E 40mi, 64km
Updated: 07/17/2018 10:56pm
Partly cloudy
Partly cloudy
 Wind from WNW
Wind: WNW 3 mph , 6 km/h
Temperature: 68°F , 20°C
Dew Point: 66°F , 19°C
Humidity: 94%
Barometer: 29.88 inHg , 1011.9 hPa
Clouds: Partly cloudy
Visibility: 10 miles , 16 km
Cloud details: Partly cloudy 10000 ft
2018/07/18 02:56 KGAI 180256Z AUTO 30003KT 10SM SCT100 20/19 A2988 RMK AO2 RAE12 SLP139 P0000 60010 T02000194 50009
 
KRYT - Fountain Dale, Pennsylvania, USA
Distance from station: NE 40mi, 64km
Updated: 11/13/2017 7:53am
NOT Current
Mist, Overcast
Mist, Overcast
 Wind from calm
Wind: Calm
Temperature: 37°F , 3°C
Dew Point: 34°F , 1°C
Humidity: 87%
Barometer: 30.31 inHg , 1026.4 hPa
Summary: Mist
Clouds: Overcast
Visibility: 5 miles , 8 km
Cloud details: Overcast 700 ft
2017/11/13 12:53 KRYT 131253Z AUTO 00000KT 5SM BR OVC007 03/01 A3031 RMK AO2 SLP275 T00280011 TSNO $
KHEF - Manassas Muni, Virginia, USA
Distance from station: SSE 44mi, 72km
Updated: 07/17/2018 10:56pm
Partly cloudy
Partly cloudy
 Wind from N
Wind: N 9 mph , 15 km/h
Temperature: 73°F , 23°C
Dew Point: 70°F , 21°C
Humidity: 89%
Barometer: 29.89 inHg , 1012.2 hPa
Clouds: Partly cloudy
Visibility: 10 miles , 16 km
Cloud details: Partly cloudy 10000 ft
2018/07/18 02:56 KHEF 180256Z AUTO 36008KT 10SM SCT100 23/21 A2989 RMK AO2 SLP129 6//// T02280211 51015 PNO $
 
KHWY - Warrenton, Virginia, USA
Distance from station: SSE 50mi, 80km
Updated: 07/17/2018 10:55pm
Overcast
Overcast
 Wind from N
Wind: N 3 mph , 6 km/h
Temperature: 75°F , 24°C
Dew Point: 63°F , 17°C
Humidity: 65%
Barometer: 29.89 inHg , 1012.2 hPa
Clouds: Overcast
Visibility: 10 miles , 16 km
Cloud details: Overcast 6000 ft
2018/07/18 02:55 KHWY 180255Z AUTO 35003KT 10SM OVC060 24/17 A2989 RMK AO2 T02420174